AirNav   TITAN Aviation Fuels
 
 590 users online  

MN55 Sandy Flats Airport
Hastings, Minnesota, USA

GOING TO HASTINGS?


FAA INFORMATION EFFECTIVE 15 JULY 2021

Location

FAA Identifier: MN55
Lat/Long: 44-42-18.8820N 092-48-42.7300W
44-42.314700N 092-48.712167W
44.7052450,-92.8118694
(estimated)
Elevation: 835 ft. / 255 m (estimated)
Variation: 02E (1995)
From city: 3 miles SE of HASTINGS, MN
Time zone: UTC -5 (UTC -6 during Standard Time)
Zip code: 55033

Airport Operations

Airport use: Private use. Permission required prior to landing
Activation date: 02/1998
Control tower: no
ARTCC: MINNEAPOLIS CENTER
FSS: PRINCETON FLIGHT SERVICE STATION
Attendance: UNATNDD
Wind indicator: yes
Segmented circle: no

Airport Communications

WX AWOS-3 at SGS (13 nm NW): 119.425 (651-457-8120)
WX AWOS-3 at RGK (16 nm SE): 119.25 (715-594-3763)
WX AWOS-3 at SYN (16 nm SW): 119.35 (507-664-3806)
WX ASOS at STP (17 nm NW): 118.35 (651-312-8888)
WX AWOS-3 at 21D (18 nm N): 120.075 (651-779-5949)
WX AWOS-3 at LVN (18 nm W): 118.0 (952-469-5850)

Nearby radio navigation aids

VOR radial/distance  VOR name  Freq  Var
FGTr068/16.4FARMINGTON VORTAC115.7006E
MSPr120/21.4MINNEAPOLIS VOR/DME115.3002E
FCMr104/27.8FLYING CLOUD VOR/DME117.7001E
GEPr132/35.6GOPHER VORTAC117.3006E
FOWr037/38.4HALFWAY VOR/DME111.2002E

 
NDB name  Hdg/Dist  Freq  Var  ID
REGUE311/9.527402ERG .-. --.

Airport Services

Runway Information

Runway 18/36

Dimensions: 1900 x 100 ft. / 579 x 30 m
Surface: turf, in good condition
RUNWAY 18  RUNWAY 36
Traffic pattern: leftleft
Obstructions: 50 ft. trees, 4700 ft. from runway145 ft. pline, 4000 ft. from runway

Airport Ownership and Management from official FAA records

Ownership: Privately-owned
Owner: ROGER FOX
16950 NICOLIA AVE
HASTINGS, MN 55033
Phone 612-437-5700
Manager: ROGER FOX
16950 NICOLIA AVE
HASTINGS, MN 55033
Phone 612-437-5700

Airport Operational Statistics

Aircraft based on the field: 1
Single engine airplanes: 1
    

Additional Remarks

DO NOT CHART PER MINNESOTA DEPARTMENT OF TRANSPORTATION
DO NOT CHART ON ANY CHARTS (INCLUDING TERMINAL AREA) PER MINNESOTA DEPARTMENT OF TRASPORTATION
FOR CD CTC MINNEAPOLIS ARTCC AT 651-463-5588.

Instrument Procedures

There are no published instrument procedures at MN55.

Some nearby airports with instrument procedures:

KSGS - South St Paul Municipal Airport-Richard E Fleming Field (13 nm NW)
KRGK - Red Wing Regional Airport (16 nm SE)
KSTP - St Paul Downtown Airport Holman Field (17 nm NW)
21D - Lake Elmo Airport (18 nm N)
KLVN - Airlake Airport (18 nm W)
 
Loc | Ops | Rwys | IFR | FBO | Links
Com | Nav | Svcs | Stats | Notes
Area around MN55 (Sandy Flats Airport)
 
Road maps at: MapQuest Bing Google
 
Aerial photo
No photo
 
Sectional chart

 
Airport distance calculator
Flying to Sandy Flats Airport? Find the distance to fly.

From to MN55

Sunrise and sunset
Times for 29-Jul-2021
 Local
(UTC-5)
 Zulu
(UTC)
Morning civil twilight05:2110:21
Sunrise05:5510:55
Sunset20:4001:40
Evening civil twilight21:1402:14

Current date and time
Zulu (UTC)  29-Jul-2021 11:12:27
Local (UTC-5)  29-Jul-2021 06:12:27
 
METAR
KSYN 
16nm SW 
291055Z AUTO 33003KT 10SM CLR 23/21 A2996 RMK AO2 T02270205
KSGS 
17nm NW 
291055Z AUTO 35007KT 10SM CLR 24/20 A2997 RMK AO2 T02350200
KRGK 
17nm SE 
291055Z AUTO 31003KT 7SM CLR 23/21 A2994 RMK AO2
KSTP 
17nm NW 
291053Z 34008KT 10SM CLR 23/20 A2997 RMK AO2 SLP142 T02330200
K21D 
18nm N 
291055Z AUTO 34004KT 10SM CLR 21/20 A2998 RMK AO2
KLVN 
18nm W 
291055Z AUTO 34007KT 10SM CLR 23/19 A2998 RMK AO2
KMSP 
21nm NW 
291053Z 35010KT 7SM FEW049 23/19 A2997 RMK AO2 SLP143 T02330194
KFCM 
29nm W 
291053Z 36010KT 7SM FEW048 23/19 A2997 RMK AO2 SLP140 T02330194
KRNH 
29nm NE 
291055Z AUTO 33004KT 5SM BR CLR 20/19 A2998 RMK AO2 T02000192
KANE 
31nm NW 
291055Z AUTO 33005KT 10SM CLR 23/19 A2998 RMK AO2
TAF
KMSP 
21nm NW 
290849Z 2909/3012 35010KT P6SM SKC FM292000 36011KT 3SM FU SKC FM300200 03005KT P6SM SKC
NOTAMs
Click for the latest NOTAMs
NOTAMs are issued by the DoD/FAA and will open in a separate window not controlled by AirNav.

 

 
 

Would you like to see your business listed on this page?

 If your business provides an interesting product or service to pilots, flight crews, aircraft, or users of the Sandy Flats Airport, you should consider listing it here.  To start the listing process, click on the button below
 
Add a business
 

Other Pages about Sandy Flats Airport

Update a link
 
Copyright © AirNav, LLC. All rights reserved. Privacy Policy  Contact